Time;durP1;ratioP1;P1;durP2;ratioP2;P2;SDS_P1;SDS_P2;PMS_P1;PMS_P2;Temp;Humidity;BMP_temperature;BMP_pressure;BME280_temperature;BME280_humidity;BME280_pressure;Samples;Min_cycle;Max_cycle;Signal;HPM_P1;HPM_P2
2021/05/14 00:00:25;;;;;;;;;;;15.40;48.10;;;;;;5013622;28;78055;-69
2021/05/14 00:02:51;;;;;;;;;;;15.40;48.20;;;;;;5032168;28;75140;-69
2021/05/14 00:05:16;;;;;;;;;;;15.40;48.20;;;;;;5032000;28;75331;-68
2021/05/14 00:07:42;;;;;;;;;;;15.40;48.40;;;;;;5031803;28;75331;-74
2021/05/14 00:10:08;;;;;;;;;;;15.40;48.10;;;;;;5013934;28;78723;-71
2021/05/14 00:12:34;;;;;;;;;;;15.40;48.40;;;;;;5032348;28;74938;-70
2021/05/14 00:14:59;;;;;;;;;;;15.30;48.60;;;;;;5046894;28;78038;-68
2021/05/14 00:17:25;;;;;;;;;;;15.30;48.60;;;;;;5014104;28;78650;-68
2021/05/14 00:19:50;;;;;;;;;;;15.30;48.80;;;;;;5046706;28;77577;-68
2021/05/14 00:22:16;;;;;;;;;;;15.30;48.80;;;;;;5031921;28;75732;-75
2021/05/14 00:24:42;;;;;;;;;;;15.20;48.60;;;;;;5031955;28;75108;-69
2021/05/14 00:27:07;;;;;;;;;;;15.30;48.70;;;;;;5047202;28;76000;-74
2021/05/14 00:29:33;;;;;;;;;;;15.20;48.80;;;;;;5012444;28;78626;-69
2021/05/14 00:31:58;;;;;;;;;;;15.20;48.90;;;;;;5046880;28;77668;-69
2021/05/14 00:34:24;;;;;;;;;;;15.20;49.10;;;;;;5013206;28;76968;-68
2021/05/14 00:36:50;;;;;;;;;;;15.20;48.80;;;;;;5032502;28;74436;-70
2021/05/14 00:39:15;;;;;;;;;;;15.10;49.00;;;;;;5013026;28;76517;-68
2021/05/14 00:41:41;;;;;;;;;;;15.10;49.10;;;;;;5031516;28;75203;-73
2021/05/14 00:44:25;;;;;;;;;;;15.10;49.20;;;;;;5013411;28;76993;-71
2021/05/14 00:46:51;;;;;;;;;;;15.00;49.30;;;;;;5050112;28;78178;-71
2021/05/14 00:49:16;;;;;;;;;;;15.00;49.40;;;;;;5016629;28;75382;-68
2021/05/14 00:51:42;;;;;;;;;;;15.00;49.60;;;;;;5034677;28;75034;-68
2021/05/14 00:54:08;;;;;;;;;;;15.00;49.70;;;;;;5035126;28;75189;-69
2021/05/14 00:56:33;;;;;;;;;;;15.10;49.70;;;;;;5034919;28;75402;-68
2021/05/14 00:58:59;;;;;;;;;;;15.10;49.70;;;;;;5016787;28;76630;-71
2021/05/14 01:01:25;;;;;;;;;;;15.00;49.90;;;;;;5034550;28;75698;-71
2021/05/14 01:03:50;;;;;;;;;;;15.00;50.00;;;;;;5015938;28;76782;-70
2021/05/14 01:06:16;;;;;;;;;;;15.00;50.00;;;;;;5048975;28;77150;-74
2021/05/14 01:08:42;;;;;;;;;;;15.00;50.20;;;;;;5034811;28;75361;-71
2021/05/14 01:11:08;;;;;;;;;;;15.00;50.40;;;;;;5016424;28;75753;-73
2021/05/14 01:13:33;;;;;;;;;;;15.00;50.50;;;;;;5016100;28;75298;-72
2021/05/14 01:16:00;;;;;;;;;;;15.00;50.60;;;;;;5033634;28;96069;-69
2021/05/14 01:18:26;;;;;;;;;;;14.90;50.80;;;;;;5015924;28;78493;-72
2021/05/14 01:20:52;;;;;;;;;;;14.90;51.00;;;;;;5016391;28;74455;-69
2021/05/14 01:23:17;;;;;;;;;;;14.90;51.30;;;;;;5034658;28;75195;-68
2021/05/14 01:25:43;;;;;;;;;;;14.90;51.30;;;;;;5016088;28;77274;-69
2021/05/14 01:28:09;;;;;;;;;;;14.90;51.60;;;;;;5016179;28;75980;-68
2021/05/14 01:30:34;;;;;;;;;;;14.80;51.70;;;;;;5015989;28;75276;-74
2021/05/14 01:33:00;;;;;;;;;;;14.80;51.90;;;;;;5015473;28;75405;-74
2021/05/14 01:35:25;;;;;;;;;;;14.80;52.00;;;;;;5015645;28;74672;-72
2021/05/14 01:37:51;;;;;;;;;;;14.70;52.10;;;;;;5049023;28;77650;-71
2021/05/14 01:40:17;;;;;;;;;;;14.80;52.10;;;;;;5016032;28;75827;-72
2021/05/14 01:42:43;;;;;;;;;;;14.70;52.30;;;;;;5015980;28;77361;-70
2021/05/14 01:45:09;;;;;;;;;;;14.70;52.30;;;;;;5033368;28;75392;-68
2021/05/14 01:47:35;;;;;;;;;;;14.70;52.40;;;;;;5031671;28;74829;-68
2021/05/14 01:50:00;;;;;;;;;;;14.70;52.70;;;;;;5015621;28;75557;-74
2021/05/14 01:52:26;;;;;;;;;;;14.70;52.90;;;;;;5015472;28;75780;-75
2021/05/14 01:54:51;;;;;;;;;;;14.70;53.10;;;;;;5049527;28;77303;-72
2021/05/14 01:57:17;;;;;;;;;;;14.60;53.00;;;;;;5015318;28;75354;-74
2021/05/14 01:59:43;;;;;;;;;;;14.60;53.20;;;;;;5015512;28;77674;-71
2021/05/14 02:02:10;;;;;;;;;;;14.60;53.20;;;;;;5049377;28;74534;-71
2021/05/14 02:04:35;;;;;;;;;;;14.50;53.60;;;;;;5049097;28;78117;-73
2021/05/14 02:07:01;;;;;;;;;;;14.60;53.40;;;;;;5015436;28;75508;-73
2021/05/14 02:09:27;;;;;;;;;;;14.50;53.50;;;;;;5033639;28;75209;-72
2021/05/14 02:11:52;;;;;;;;;;;14.50;53.70;;;;;;5015475;28;75581;-73
2021/05/14 02:14:18;;;;;;;;;;;14.50;53.70;;;;;;5048032;28;76004;-73
2021/05/14 02:16:43;;;;;;;;;;;14.40;54.10;;;;;;5033249;28;75625;-72
2021/05/14 02:19:09;;;;;;;;;;;14.40;54.10;;;;;;5048720;28;74709;-72
2021/05/14 02:21:35;;;;;;;;;;;14.40;54.50;;;;;;5015170;28;77612;-69
2021/05/14 02:24:00;;;;;;;;;;;14.40;54.70;;;;;;5033763;28;75158;-72
2021/05/14 02:26:26;;;;;;;;;;;14.30;54.60;;;;;;5015146;28;75549;-69
2021/05/14 02:28:52;;;;;;;;;;;14.20;54.90;;;;;;5014941;28;76769;-68
2021/05/14 02:31:18;;;;;;;;;;;14.20;54.90;;;;;;5014588;28;77237;-68
2021/05/14 02:33:43;;;;;;;;;;;14.10;54.80;;;;;;5014977;28;75801;-69
2021/05/14 02:36:09;;;;;;;;;;;14.10;55.10;;;;;;5048045;28;77839;-73
2021/05/14 02:38:35;;;;;;;;;;;14.10;55.10;;;;;;5014926;28;77675;-74
2021/05/14 02:41:01;;;;;;;;;;;14.00;55.60;;;;;;5014728;28;77330;-71
2021/05/14 02:43:26;;;;;;;;;;;14.00;55.60;;;;;;5014987;28;75396;-72
2021/05/14 02:45:52;;;;;;;;;;;14.00;55.80;;;;;;5013622;28;77485;-73
2021/05/14 02:48:20;;;;;;;;;;;13.90;55.80;;;;;;5033388;28;74492;-70
2021/05/14 02:50:46;;;;;;;;;;;13.90;56.40;;;;;;5015133;28;74802;-72
2021/05/14 02:53:11;;;;;;;;;;;13.80;56.10;;;;;;5014877;28;75425;-69
2021/05/14 02:55:37;;;;;;;;;;;13.80;56.30;;;;;;5014292;28;76472;-70
2021/05/14 02:58:03;;;;;;;;;;;13.70;56.30;;;;;;5014589;28;76454;-71
2021/05/14 03:00:28;;;;;;;;;;;13.70;56.40;;;;;;5014725;28;76950;-71
2021/05/14 03:02:54;;;;;;;;;;;13.80;56.60;;;;;;5033232;28;74550;-72
2021/05/14 03:05:20;;;;;;;;;;;13.80;56.50;;;;;;5014828;28;76957;-71
2021/05/14 03:07:45;;;;;;;;;;;13.70;56.50;;;;;;5013714;28;77361;-74
2021/05/14 03:10:11;;;;;;;;;;;13.70;56.50;;;;;;5032058;28;75098;-74
2021/05/14 03:12:37;;;;;;;;;;;13.80;56.60;;;;;;5032821;28;75293;-74
2021/05/14 03:15:04;;;;;;;;;;;13.80;56.70;;;;;;5032697;28;75231;-74
2021/05/14 03:17:29;;;;;;;;;;;13.80;56.80;;;;;;5032600;28;74828;-70
2021/05/14 03:19:55;;;;;;;;;;;13.70;57.00;;;;;;5032184;28;75513;-69
2021/05/14 03:22:20;;;;;;;;;;;13.70;57.00;;;;;;5014598;28;75413;-70
2021/05/14 03:24:46;;;;;;;;;;;13.70;57.10;;;;;;5013951;28;75859;-69
2021/05/14 03:27:12;;;;;;;;;;;13.70;57.00;;;;;;5014358;28;75399;-70
2021/05/14 03:29:37;;;;;;;;;;;13.70;57.20;;;;;;5032068;28;75165;-69
2021/05/14 03:32:03;;;;;;;;;;;13.70;57.30;;;;;;5030985;28;74603;-69
2021/05/14 03:34:29;;;;;;;;;;;13.70;57.30;;;;;;5047644;28;76471;-70
2021/05/14 03:36:55;;;;;;;;;;;13.70;57.40;;;;;;5014040;28;74536;-69
2021/05/14 03:39:23;;;;;;;;;;;13.70;57.50;;;;;;5047878;28;75738;-67
2021/05/14 03:42:30;;;;;;;;;;;13.70;57.60;;;;;;5033104;28;74611;-68
2021/05/14 03:44:37;;;;;;;;;;;13.70;57.70;;;;;;5028728;28;74688;-70
2021/05/14 03:47:03;;;;;;;;;;;13.70;57.80;;;;;;5013336;28;74694;-69
2021/05/14 03:49:28;;;;;;;;;;;13.70;57.80;;;;;;5013952;28;75604;-71
2021/05/14 03:51:54;;;;;;;;;;;13.70;57.90;;;;;;5032170;28;75522;-72
2021/05/14 03:54:20;;;;;;;;;;;13.70;57.90;;;;;;5047238;28;76276;-68
2021/05/14 03:56:48;;;;;;;;;;;13.70;58.00;;;;;;5013958;28;77232;-67
2021/05/14 03:59:14;;;;;;;;;;;13.70;58.00;;;;;;5032154;28;75195;-68
2021/05/14 04:01:39;;;;;;;;;;;13.70;58.00;;;;;;5014045;28;74646;-68
2021/05/14 04:04:05;;;;;;;;;;;13.70;58.10;;;;;;5032230;28;74988;-76
2021/05/14 04:06:31;;;;;;;;;;;13.70;58.10;;;;;;5013708;28;74632;-73
2021/05/14 04:08:56;;;;;;;;;;;13.70;58.20;;;;;;5013718;28;75422;-72
2021/05/14 04:12:05;;;;;;;;;;;13.70;58.20;;;;;;5032104;28;75059;-72
2021/05/14 04:16:52;;;;;;;;;;;13.70;58.20;;;;;;5030892;28;74946;-71
2021/05/14 04:19:18;;;;;;;;;;;13.70;58.20;;;;;;5048888;28;78782;-66
2021/05/14 04:21:43;;;;;;;;;;;13.70;58.20;;;;;;5017029;28;75382;-66
2021/05/14 04:24:09;;;;;;;;;;;13.70;58.40;;;;;;5035966;28;75237;-71
2021/05/14 04:26:35;;;;;;;;;;;13.70;58.40;;;;;;5017282;28;75337;-68
2021/05/14 04:29:00;;;;;;;;;;;13.70;58.50;;;;;;5016942;28;77170;-73
2021/05/14 04:31:26;;;;;;;;;;;13.70;58.50;;;;;;5017210;28;74438;-73
2021/05/14 04:33:52;;;;;;;;;;;13.70;58.50;;;;;;5016843;28;75765;-76
2021/05/14 04:36:17;;;;;;;;;;;13.60;58.60;;;;;;5050676;28;75444;-75
2021/05/14 04:38:43;;;;;;;;;;;13.60;58.70;;;;;;5017177;28;75282;-77
2021/05/14 04:41:08;;;;;;;;;;;13.60;58.80;;;;;;5017109;28;77752;-74
2021/05/14 04:43:34;;;;;;;;;;;13.60;58.90;;;;;;5034828;28;74672;-72
2021/05/14 04:46:00;;;;;;;;;;;13.60;58.90;;;;;;5016530;28;74727;-70
2021/05/14 04:48:25;;;;;;;;;;;13.60;59.00;;;;;;5050610;28;76442;-73
2021/05/14 04:50:51;;;;;;;;;;;13.60;59.10;;;;;;5016922;28;75691;-76
2021/05/14 04:53:18;;;;;;;;;;;13.60;59.00;;;;;;5035711;28;74690;-73
2021/05/14 04:55:44;;;;;;;;;;;13.60;59.00;;;;;;5035370;28;75260;-69
2021/05/14 04:58:09;;;;;;;;;;;13.60;58.80;;;;;;5016399;28;75314;-69
2021/05/14 05:00:35;;;;;;;;;;;13.60;58.60;;;;;;5050183;28;75303;-69
2021/05/14 05:03:00;;;;;;;;;;;13.60;58.70;;;;;;5035162;28;74651;-70
2021/05/14 05:05:26;;;;;;;;;;;13.50;58.60;;;;;;5016593;28;75743;-70
2021/05/14 05:07:52;;;;;;;;;;;13.60;58.60;;;;;;5016531;28;74857;-71
2021/05/14 05:10:20;;;;;;;;;;;13.50;58.60;;;;;;5016764;28;74580;-73
2021/05/14 05:12:45;;;;;;;;;;;13.60;58.50;;;;;;5016385;28;75713;-73
2021/05/14 05:15:11;;;;;;;;;;;13.60;58.60;;;;;;5015860;28;78062;-71
2021/05/14 05:17:37;;;;;;;;;;;13.60;58.80;;;;;;5033715;28;75450;-74
2021/05/14 05:20:04;;;;;;;;;;;13.60;58.60;;;;;;5015988;28;75305;-69
2021/05/14 05:22:30;;;;;;;;;;;13.60;58.60;;;;;;5032367;28;74626;-73
2021/05/14 05:24:55;;;;;;;;;;;13.60;58.50;;;;;;5016034;28;77851;-72
2021/05/14 05:27:21;;;;;;;;;;;13.70;58.40;;;;;;5015764;28;75462;-73
2021/05/14 05:29:47;;;;;;;;;;;13.70;58.40;;;;;;5015884;28;75704;-68
2021/05/14 05:32:12;;;;;;;;;;;13.70;58.30;;;;;;5049040;28;76244;-66
2021/05/14 05:34:38;;;;;;;;;;;13.70;58.30;;;;;;5046210;28;75276;-68
2021/05/14 05:37:04;;;;;;;;;;;13.70;58.30;;;;;;5032306;28;77079;-64
2021/05/14 05:39:30;;;;;;;;;;;13.70;58.00;;;;;;5043470;27;75493;-65
2021/05/14 05:41:55;;;;;;;;;;;13.70;57.90;;;;;;5036201;28;77537;-70
2021/05/14 05:44:21;;;;;;;;;;;13.80;57.80;;;;;;5050003;28;76107;-67
2021/05/14 05:46:46;;;;;;;;;;;13.80;57.80;;;;;;5054644;28;74524;-65
2021/05/14 05:49:12;;;;;;;;;;;13.80;57.40;;;;;;5054633;28;75184;-70
2021/05/14 05:51:38;;;;;;;;;;;13.80;57.00;;;;;;5036292;28;78083;-64
2021/05/14 05:54:04;;;;;;;;;;;13.80;57.00;;;;;;5052801;28;74655;-64
2021/05/14 05:56:29;;;;;;;;;;;13.80;57.00;;;;;;5054155;28;75111;-66
2021/05/14 05:58:55;;;;;;;;;;;13.90;57.00;;;;;;5036007;28;74583;-67
2021/05/14 06:01:20;;;;;;;;;;;13.90;57.00;;;;;;5053482;28;75357;-67
2021/05/14 06:03:46;;;;;;;;;;;13.90;56.80;;;;;;5053851;28;75664;-67
2021/05/14 06:06:12;;;;;;;;;;;13.90;56.80;;;;;;5053235;27;74608;-68
2021/05/14 06:08:38;;;;;;;;;;;13.90;56.70;;;;;;5048468;28;74602;-64
2021/05/14 06:11:03;;;;;;;;;;;13.90;56.50;;;;;;5051310;28;74692;-65
2021/05/14 06:13:30;;;;;;;;;;;13.90;56.00;;;;;;5017905;28;77114;-65
2021/05/14 06:15:59;;;;;;;;;;;13.90;56.00;;;;;;5053467;28;76689;-67
2021/05/14 06:18:26;;;;;;;;;;;14.00;55.80;;;;;;5035182;28;75882;-62
2021/05/14 06:20:52;;;;;;;;;;;14.00;55.80;;;;;;5052933;28;76622;-63
2021/05/14 06:23:17;;;;;;;;;;;14.00;55.20;;;;;;5060935;27;75564;-64
2021/05/14 06:25:43;;;;;;;;;;;14.00;55.10;;;;;;5034368;28;76346;-69
2021/05/14 06:28:15;;;;;;;;;;;14.10;55.10;;;;;;5053781;28;75583;-67
2021/05/14 06:30:41;;;;;;;;;;;14.10;55.00;;;;;;5035189;28;75692;-65
2021/05/14 06:33:06;;;;;;;;;;;14.10;55.10;;;;;;5054058;28;75271;-65
2021/05/14 06:35:33;;;;;;;;;;;14.10;55.20;;;;;;5026238;28;76039;-69
2021/05/14 06:37:59;;;;;;;;;;;14.10;55.20;;;;;;5034501;28;77201;-66
2021/05/14 06:40:25;;;;;;;;;;;14.10;55.10;;;;;;5034928;28;75819;-64
2021/05/14 06:42:50;;;;;;;;;;;14.10;55.10;;;;;;5052848;27;75152;-64
2021/05/14 06:45:16;;;;;;;;;;;14.20;55.00;;;;;;5053023;28;75252;-63
2021/05/14 06:47:42;;;;;;;;;;;14.20;54.90;;;;;;5034610;28;75310;-64
2021/05/14 06:50:08;;;;;;;;;;;14.20;54.80;;;;;;5032807;28;77057;-65
2021/05/14 06:52:34;;;;;;;;;;;14.20;54.70;;;;;;5032339;28;74918;-64
2021/05/14 06:55:01;;;;;;;;;;;14.30;54.60;;;;;;5032501;28;75688;-65
2021/05/14 06:57:27;;;;;;;;;;;14.40;54.10;;;;;;5052012;28;75237;-65
2021/05/14 06:59:52;;;;;;;;;;;14.50;54.00;;;;;;5033572;28;77369;-65
2021/05/14 07:02:18;;;;;;;;;;;14.60;54.00;;;;;;5033340;28;77369;-65
2021/05/14 07:04:44;;;;;;;;;;;14.70;53.90;;;;;;5029613;28;75335;-64
2021/05/14 07:07:09;;;;;;;;;;;14.90;53.60;;;;;;5034931;27;78027;-65
2021/05/14 07:09:35;;;;;;;;;;;14.90;53.20;;;;;;5034798;28;78301;-65
2021/05/14 07:12:01;;;;;;;;;;;15.00;52.80;;;;;;5052775;28;75203;-66
2021/05/14 07:14:27;;;;;;;;;;;15.10;52.70;;;;;;5033996;28;76388;-66
2021/05/14 07:16:52;;;;;;;;;;;15.10;52.60;;;;;;5034687;28;75436;-66
2021/05/14 07:19:19;;;;;;;;;;;15.10;52.60;;;;;;5052211;28;76039;-66
2021/05/14 07:21:45;;;;;;;;;;;15.20;52.50;;;;;;5031474;28;77069;-67
2021/05/14 07:24:11;;;;;;;;;;;15.20;52.40;;;;;;5051644;28;75326;-65
2021/05/14 07:26:37;;;;;;;;;;;15.30;52.20;;;;;;5050503;27;75135;-67
2021/05/14 07:29:03;;;;;;;;;;;15.40;52.00;;;;;;5030561;28;75757;-64
2021/05/14 07:31:29;;;;;;;;;;;15.40;51.90;;;;;;5017172;27;75350;-66
2021/05/14 07:33:58;;;;;;;;;;;15.50;51.30;;;;;;5027327;28;78016;-65
2021/05/14 07:36:27;;;;;;;;;;;15.50;51.50;;;;;;5050535;28;75668;-65
2021/05/14 07:38:53;;;;;;;;;;;15.60;51.20;;;;;;5051744;28;75211;-66
2021/05/14 07:41:18;;;;;;;;;;;15.70;51.40;;;;;;5052297;28;74960;-66
2021/05/14 07:43:44;;;;;;;;;;;15.80;51.10;;;;;;5051505;28;75423;-64
2021/05/14 07:46:09;;;;;;;;;;;15.80;50.70;;;;;;5052045;28;75104;-65
2021/05/14 07:48:35;;;;;;;;;;;15.80;50.70;;;;;;5022871;28;76521;-65
2021/05/14 07:51:01;;;;;;;;;;;15.90;50.40;;;;;;5022652;28;76686;-65
2021/05/14 07:53:27;;;;;;;;;;;16.00;49.70;;;;;;5042494;28;75483;-64
2021/05/14 07:55:52;;;;;;;;;;;16.00;49.30;;;;;;5031480;28;76010;-65
2021/05/14 07:58:20;;;;;;;;;;;16.10;49.40;;;;;;5046234;28;75074;-66
2021/05/14 08:00:48;;;;;;;;;;;16.20;49.30;;;;;;5044248;28;74997;-64
2021/05/14 08:03:14;;;;;;;;;;;16.30;48.70;;;;;;5031847;28;77256;-67
2021/05/14 08:05:39;;;;;;;;;;;16.40;48.80;;;;;;5043235;28;75606;-66
2021/05/14 08:08:10;;;;;;;;;;;16.50;48.10;;;;;;5046887;28;76241;-67
2021/05/14 08:10:36;;;;;;;;;;;16.50;47.60;;;;;;5030443;28;76558;-65
2021/05/14 08:13:02;;;;;;;;;;;16.50;47.70;;;;;;5030387;28;78145;-65
2021/05/14 08:15:29;;;;;;;;;;;16.60;48.00;;;;;;5030828;28;77583;-65
2021/05/14 08:17:54;;;;;;;;;;;16.70;47.50;;;;;;5050600;28;75060;-65
2021/05/14 08:20:20;;;;;;;;;;;16.70;47.50;;;;;;5031527;28;76383;-65
2021/05/14 08:22:46;;;;;;;;;;;16.90;47.20;;;;;;5031879;28;77216;-65
2021/05/14 08:25:12;;;;;;;;;;;16.90;46.80;;;;;;5031404;28;76221;-65
2021/05/14 08:27:38;;;;;;;;;;;17.00;46.60;;;;;;5050390;28;75852;-67
2021/05/14 08:30:05;;;;;;;;;;;17.20;46.70;;;;;;5030955;28;75298;-67
2021/05/14 08:32:31;;;;;;;;;;;17.20;46.40;;;;;;5032018;28;77359;-67
2021/05/14 08:34:56;;;;;;;;;;;17.40;45.60;;;;;;5047587;27;76399;-66
2021/05/14 08:37:22;;;;;;;;;;;17.40;45.30;;;;;;5031781;28;75771;-66
2021/05/14 08:39:47;;;;;;;;;;;17.50;45.60;;;;;;5032293;28;76473;-66
2021/05/14 08:42:13;;;;;;;;;;;17.70;45.60;;;;;;5029217;28;77240;-66
2021/05/14 08:44:39;;;;;;;;;;;17.80;45.10;;;;;;5047701;28;77064;-65
2021/05/14 08:47:05;;;;;;;;;;;17.90;44.80;;;;;;5048590;28;74904;-66
2021/05/14 08:49:32;;;;;;;;;;;18.10;44.50;;;;;;5050341;28;74936;-66
2021/05/14 08:51:59;;;;;;;;;;;18.20;43.30;;;;;;5031345;28;77814;-65
2021/05/14 08:54:24;;;;;;;;;;;18.10;42.20;;;;;;5049849;28;74580;-66
2021/05/14 08:56:50;;;;;;;;;;;18.10;42.50;;;;;;5049574;28;75730;-66
2021/05/14 08:59:16;;;;;;;;;;;18.00;42.70;;;;;;5050955;28;74827;-65
2021/05/14 09:01:41;;;;;;;;;;;18.10;43.10;;;;;;5033082;28;75757;-66
2021/05/14 09:04:09;;;;;;;;;;;18.10;42.60;;;;;;5033037;28;75234;-64
2021/05/14 09:06:36;;;;;;;;;;;18.10;42.80;;;;;;5053344;28;75115;-65
2021/05/14 09:09:04;;;;;;;;;;;18.20;42.10;;;;;;5054635;28;75150;-64
2021/05/14 09:11:33;;;;;;;;;;;18.20;42.80;;;;;;5054745;28;75277;-65
2021/05/14 09:13:58;;;;;;;;;;;18.30;42.20;;;;;;5054633;28;75324;-63
2021/05/14 09:16:43;;;;;;;;;;;18.40;42.70;;;;;;5035456;28;77282;-64
2021/05/14 09:19:09;;;;;;;;;;;18.40;42.40;;;;;;5036380;28;75641;-64
2021/05/14 09:21:35;;;;;;;;;;;18.50;42.50;;;;;;5054604;28;75749;-64
2021/05/14 09:24:01;;;;;;;;;;;18.50;42.50;;;;;;5030806;28;75673;-63
2021/05/14 09:26:31;;;;;;;;;;;18.60;42.70;;;;;;5031270;28;76731;-64
2021/05/14 09:28:57;;;;;;;;;;;18.70;42.10;;;;;;5016123;28;75611;-65
2021/05/14 09:31:22;;;;;;;;;;;18.80;41.90;;;;;;5035134;28;74967;-64
2021/05/14 09:33:52;;;;;;;;;;;18.90;41.60;;;;;;5033272;28;77993;-65
2021/05/14 09:36:21;;;;;;;;;;;18.90;41.50;;;;;;5034303;28;77867;-67
2021/05/14 09:38:50;;;;;;;;;;;19.00;41.60;;;;;;5049534;28;74639;-67
2021/05/14 09:41:22;;;;;;;;;;;19.10;41.40;;;;;;5046122;28;74518;-67
2021/05/14 09:43:58;;;;;;;;;;;19.10;40.80;;;;;;5053390;28;74533;-67
2021/05/14 09:46:24;;;;;;;;;;;19.20;41.50;;;;;;5034499;28;75620;-69
2021/05/14 09:48:54;;;;;;;;;;;19.30;41.40;;;;;;5030961;28;77208;-67
2021/05/14 09:51:20;;;;;;;;;;;19.40;41.10;;;;;;5051815;28;75396;-68
2021/05/14 09:53:45;;;;;;;;;;;19.50;40.60;;;;;;5053037;28;74564;-67
2021/05/14 09:56:18;;;;;;;;;;;19.50;41.00;;;;;;5034579;28;77414;-68
2021/05/14 09:58:51;;;;;;;;;;;19.60;40.60;;;;;;5052798;28;75325;-67
2021/05/14 10:01:16;;;;;;;;;;;19.60;39.90;;;;;;5034766;28;76331;-67
2021/05/14 10:03:42;;;;;;;;;;;19.70;40.30;;;;;;5035261;28;74823;-68
2021/05/14 10:06:08;;;;;;;;;;;19.80;39.90;;;;;;5053750;28;75259;-65
2021/05/14 10:08:34;;;;;;;;;;;19.90;39.80;;;;;;5053534;27;75588;-66
2021/05/14 10:11:02;;;;;;;;;;;20.20;40.10;;;;;;5053722;28;74890;-66
2021/05/14 10:13:31;;;;;;;;;;;20.40;39.20;;;;;;5034599;28;78149;-66
2021/05/14 10:16:01;;;;;;;;;;;20.50;38.40;;;;;;5040246;27;76651;-67
2021/05/14 10:18:27;;;;;;;;;;;20.70;38.40;;;;;;5033914;28;78022;-67
2021/05/14 10:20:53;;;;;;;;;;;20.90;38.30;;;;;;5053354;28;75311;-67
2021/05/14 10:23:19;;;;;;;;;;;21.00;37.60;;;;;;5035372;28;76380;-67
2021/05/14 10:25:48;;;;;;;;;;;21.10;37.20;;;;;;5053005;28;75716;-67
2021/05/14 10:28:13;;;;;;;;;;;21.20;36.50;;;;;;5034673;28;75723;-67
2021/05/14 10:30:57;;;;;;;;;;;21.40;37.20;;;;;;5053108;28;75865;-67
2021/05/14 10:33:42;;;;;;;;;;;21.50;36.80;;;;;;5035095;28;76579;-67
2021/05/14 10:36:24;;;;;;;;;;;21.70;35.80;;;;;;5053155;28;75507;-66
2021/05/14 10:39:16;;;;;;;;;;;21.80;36.10;;;;;;5035143;28;76323;-66
2021/05/14 10:41:51;;;;;;;;;;;21.90;33.70;;;;;;5040535;28;75233;-67
2021/05/14 10:44:17;;;;;;;;;;;21.90;34.90;;;;;;5053318;28;75188;-67
2021/05/14 10:46:43;;;;;;;;;;;22.20;35.00;;;;;;5034431;28;77721;-68
2021/05/14 10:49:11;;;;;;;;;;;22.40;35.40;;;;;;5034707;28;76236;-67
2021/05/14 10:51:46;;;;;;;;;;;22.90;34.70;;;;;;5034807;28;75723;-66
2021/05/14 10:54:30;;;;;;;;;;;23.20;33.50;;;;;;5033686;28;76360;-67
2021/05/14 10:56:56;;;;;;;;;;;23.40;32.10;;;;;;5052532;28;75208;-67
2021/05/14 10:59:34;;;;;;;;;;;23.60;31.40;;;;;;5033636;28;75908;-67
2021/05/14 11:02:01;;;;;;;;;;;23.70;31.90;;;;;;5034039;28;77752;-67
2021/05/14 11:04:26;;;;;;;;;;;24.20;31.70;;;;;;5033978;28;75328;-67
2021/05/14 11:06:53;;;;;;;;;;;24.50;31.10;;;;;;5052517;28;75068;-67
2021/05/14 11:09:21;;;;;;;;;;;24.80;30.80;;;;;;5051666;28;75183;-67
2021/05/14 11:12:07;;;;;;;;;;;25.10;29.20;;;;;;5044946;28;77545;-68
2021/05/14 11:14:44;;;;;;;;;;;25.50;28.70;;;;;;5052859;28;75502;-67
2021/05/14 11:17:22;;;;;;;;;;;26.20;29.10;;;;;;5052483;28;75099;-67
2021/05/14 11:19:52;;;;;;;;;;;26.90;27.40;;;;;;5052983;28;75155;-68
2021/05/14 11:22:24;;;;;;;;;;;27.70;27.70;;;;;;5034286;28;77682;-68
2021/05/14 11:24:50;;;;;;;;;;;28.90;26.40;;;;;;5042385;28;76222;-68
2021/05/14 11:27:17;;;;;;;;;;;30.10;23.60;;;;;;5048816;28;78571;-68
2021/05/14 11:29:51;;;;;;;;;;;30.80;23.30;;;;;;5033763;28;77760;-68
2021/05/14 11:32:22;;;;;;;;;;;31.70;21.70;;;;;;5052761;28;74489;-67
2021/05/14 11:34:57;;;;;;;;;;;32.40;22.00;;;;;;5033817;28;75368;-67
2021/05/14 11:37:24;;;;;;;;;;;33.20;20.60;;;;;;5052379;28;75256;-68
2021/05/14 11:39:50;;;;;;;;;;;33.90;20.80;;;;;;5052509;28;75056;-67
2021/05/14 11:42:20;;;;;;;;;;;35.00;18.10;;;;;;5052724;28;74495;-67
2021/05/14 11:44:55;;;;;;;;;;;35.50;17.90;;;;;;5052303;28;75687;-67
2021/05/14 11:47:21;;;;;;;;;;;36.00;18.70;;;;;;5033799;28;78002;-67
2021/05/14 11:49:47;;;;;;;;;;;37.40;18.20;;;;;;5033813;28;74706;-68
2021/05/14 11:52:12;;;;;;;;;;;38.70;17.80;;;;;;5052336;28;75182;-67
2021/05/14 11:54:38;;;;;;;;;;;39.70;17.20;;;;;;5052146;28;74601;-67
2021/05/14 11:57:04;;;;;;;;;;;40.20;16.90;;;;;;5052254;28;75312;-68
2021/05/14 11:59:29;;;;;;;;;;;40.90;16.50;;;;;;5052291;28;75667;-67
2021/05/14 12:01:55;;;;;;;;;;;41.60;16.40;;;;;;5032736;28;77238;-68
2021/05/14 12:04:20;;;;;;;;;;;42.20;15.40;;;;;;5052699;28;74430;-68
2021/05/14 12:06:47;;;;;;;;;;;42.30;15.70;;;;;;5052519;28;75239;-69
2021/05/14 12:09:13;;;;;;;;;;;42.60;15.60;;;;;;5033462;28;75613;-68
2021/05/14 12:11:39;;;;;;;;;;;42.90;15.20;;;;;;5052372;28;75735;-68
2021/05/14 12:14:05;;;;;;;;;;;43.50;15.50;;;;;;5030756;28;76584;-69
2021/05/14 12:16:35;;;;;;;;;;;43.90;14.70;;;;;;5049844;28;75603;-69
2021/05/14 12:19:02;;;;;;;;;;;43.90;13.90;;;;;;5033018;28;75539;-68
2021/05/14 12:21:35;;;;;;;;;;;43.40;13.90;;;;;;5052107;28;74611;-67
2021/05/14 12:24:17;;;;;;;;;;;43.50;14.80;;;;;;5033350;28;76540;-68
2021/05/14 12:26:43;;;;;;;;;;;43.60;14.20;;;;;;5051805;28;75209;-68
2021/05/14 12:29:25;;;;;;;;;;;44.40;14.50;;;;;;5033548;28;78217;-68
2021/05/14 12:31:58;;;;;;;;;;;45.30;14.10;;;;;;5032704;28;74540;-68
2021/05/14 12:34:24;;;;;;;;;;;45.80;13.90;;;;;;5051681;28;75510;-68
2021/05/14 12:36:55;;;;;;;;;;;46.40;13.70;;;;;;5030952;28;75909;-69
2021/05/14 12:39:25;;;;;;;;;;;46.90;13.30;;;;;;5051933;27;75109;-68
2021/05/14 12:42:01;;;;;;;;;;;46.80;12.80;;;;;;5035967;28;78353;-68
2021/05/14 12:44:28;;;;;;;;;;;46.50;13.80;;;;;;5037268;28;76423;-69
2021/05/14 12:47:02;;;;;;;;;;;47.10;13.60;;;;;;5036886;28;75833;-68
2021/05/14 12:49:29;;;;;;;;;;;47.60;13.70;;;;;;5037018;28;76565;-69
2021/05/14 12:52:13;;;;;;;;;;;48.30;13.40;;;;;;5036996;28;78001;-69
2021/05/14 12:54:39;;;;;;;;;;;48.80;12.60;;;;;;5047577;28;75218;-68
2021/05/14 12:57:05;;;;;;;;;;;47.00;12.90;;;;;;5036808;28;77789;-69
2021/05/14 12:59:31;;;;;;;;;;;46.40;12.20;;;;;;5036442;28;77022;-69
2021/05/14 13:01:57;;;;;;;;;;;46.30;13.90;;;;;;5055208;28;75253;-69
2021/05/14 13:04:29;;;;;;;;;;;46.30;11.80;;;;;;5036814;28;77005;-69
2021/05/14 13:07:02;;;;;;;;;;;45.00;13.60;;;;;;5055155;28;74977;-69
2021/05/14 13:09:28;;;;;;;;;;;46.30;13.40;;;;;;5036406;28;77641;-68
2021/05/14 13:11:54;;;;;;;;;;;45.90;13.00;;;;;;5036707;28;77147;-70
2021/05/14 13:14:19;;;;;;;;;;;46.50;12.00;;;;;;5036684;28;77505;-68
2021/05/14 13:16:45;;;;;;;;;;;45.80;12.00;;;;;;5036072;28;76761;-67
2021/05/14 13:19:10;;;;;;;;;;;45.70;12.50;;;;;;5036164;28;77289;-67
2021/05/14 13:21:37;;;;;;;;;;;46.00;12.50;;;;;;5066387;27;75105;-68
2021/05/14 13:24:03;;;;;;;;;;;47.00;12.70;;;;;;5055409;27;75098;-68
2021/05/14 13:26:29;;;;;;;;;;;48.20;12.50;;;;;;5073145;27;75440;-67
2021/05/14 13:28:55;;;;;;;;;;;49.30;11.50;;;;;;5054753;27;76222;-67
2021/05/14 13:31:23;;;;;;;;;;;49.90;11.40;;;;;;5055936;27;75536;-68
2021/05/14 13:33:49;;;;;;;;;;;50.20;12.00;;;;;;5055274;27;76466;-67
2021/05/14 13:36:15;;;;;;;;;;;50.70;11.00;;;;;;5075005;27;75516;-67
2021/05/14 13:38:41;;;;;;;;;;;50.70;11.70;;;;;;5056257;27;76958;-68
2021/05/14 13:41:09;;;;;;;;;;;50.90;10.70;;;;;;5075119;27;75114;-68
2021/05/14 13:43:35;;;;;;;;;;;49.70;11.00;;;;;;5056430;27;77201;-68
2021/05/14 13:46:01;;;;;;;;;;;49.00;12.50;;;;;;5074689;27;75725;-68
2021/05/14 13:48:27;;;;;;;;;;;48.50;12.00;;;;;;5074979;27;75687;-67
2021/05/14 13:50:53;;;;;;;;;;;48.60;12.40;;;;;;5074792;27;74568;-68
2021/05/14 13:53:18;;;;;;;;;;;49.30;12.20;;;;;;5055635;27;74529;-68
2021/05/14 13:55:44;;;;;;;;;;;50.20;10.90;;;;;;5056083;27;78003;-67
2021/05/14 13:58:10;;;;;;;;;;;49.90;11.30;;;;;;5055962;27;77327;-68
2021/05/14 14:00:36;;;;;;;;;;;49.90;11.90;;;;;;5074843;27;75299;-68
2021/05/14 14:03:02;;;;;;;;;;;50.60;11.80;;;;;;5074715;27;75619;-68
2021/05/14 14:05:28;;;;;;;;;;;50.70;11.20;;;;;;5074870;27;75503;-68
2021/05/14 14:07:53;;;;;;;;;;;50.70;11.40;;;;;;5074620;27;74362;-68
2021/05/14 14:10:22;;;;;;;;;;;50.00;11.30;;;;;;5055953;27;75500;-68
2021/05/14 14:12:48;;;;;;;;;;;50.40;11.40;;;;;;5056206;27;76340;-67
2021/05/14 14:15:14;;;;;;;;;;;50.40;10.40;;;;;;5055746;27;77774;-67
2021/05/14 14:17:40;;;;;;;;;;;49.70;9.70;;;;;;5055731;27;77274;-68